Time;durP1;ratioP1;P1;durP2;ratioP2;P2;SDS_P1;SDS_P2;PMS_P1;PMS_P2;Temp;Humidity;BMP_temperature;BMP_pressure;BME280_temperature;BME280_humidity;BME280_pressure;Samples;Min_cycle;Max_cycle;Signal;HPM_P1;HPM_P2
2021/07/17 00:01:42;;;;;;;36.20;10.73;;;19.80;99.90;;;;;;5072061;28;20036;-70
2021/07/17 00:04:08;;;;;;;46.38;11.57;;;19.80;99.90;;;;;;5071857;28;20025;-70
2021/07/17 00:06:34;;;;;;;31.48;11.15;;;19.80;99.90;;;;;;5072180;28;20107;-69
2021/07/17 00:08:59;;;;;;;36.75;11.55;;;19.80;99.90;;;;;;5072197;28;20100;-70
2021/07/17 00:11:26;;;;;;;47.00;11.25;;;19.70;99.90;;;;;;5071694;28;20028;-69
2021/07/17 00:13:52;;;;;;;38.53;11.23;;;19.70;99.90;;;;;;5071639;28;20044;-70
2021/07/17 00:16:19;;;;;;;38.33;10.55;;;19.70;99.90;;;;;;5071560;28;20033;-71
2021/07/17 00:18:45;;;;;;;34.60;10.45;;;19.80;99.90;;;;;;5071719;28;20033;-70
2021/07/17 00:21:11;;;;;;;39.85;11.70;;;19.80;99.90;;;;;;5071984;28;20035;-70
2021/07/17 00:23:37;;;;;;;42.58;12.65;;;19.60;99.90;;;;;;5071586;28;20650;-69
2021/07/17 00:26:03;;;;;;;36.00;12.05;;;19.60;99.90;;;;;;5071431;28;20029;-69
2021/07/17 00:28:29;;;;;;;33.10;11.35;;;19.60;99.90;;;;;;5071530;28;20481;-70
2021/07/17 00:30:55;;;;;;;38.35;11.68;;;19.70;99.90;;;;;;5071289;28;20028;-70
2021/07/17 00:33:21;;;;;;;37.70;12.52;;;19.70;99.90;;;;;;5072011;28;20127;-71
2021/07/17 00:35:46;;;;;;;36.42;12.13;;;19.70;99.90;;;;;;5071298;28;20046;-69
2021/07/17 00:38:12;;;;;;;43.47;13.18;;;19.70;99.90;;;;;;5070819;28;20020;-70
2021/07/17 00:40:38;;;;;;;37.78;11.88;;;19.70;99.90;;;;;;5071199;28;20079;-69
2021/07/17 00:43:03;;;;;;;35.38;11.40;;;19.60;99.90;;;;;;5076976;28;20021;-70
2021/07/17 00:45:29;;;;;;;38.45;12.00;;;19.60;99.90;;;;;;5091241;28;20038;-70
2021/07/17 00:47:55;;;;;;;47.40;12.77;;;19.60;99.90;;;;;;5090616;28;20031;-70
2021/07/17 00:50:21;;;;;;;41.05;12.35;;;19.60;99.90;;;;;;5091099;28;20351;-70
2021/07/17 00:52:47;;;;;;;40.97;12.32;;;19.60;99.90;;;;;;5091372;28;20369;-70
2021/07/17 00:55:13;;;;;;;39.55;11.88;;;19.60;99.90;;;;;;5089758;28;20028;-70
2021/07/17 00:57:41;;;;;;;34.05;11.88;;;19.50;99.90;;;;;;5091370;28;20213;-70
2021/07/17 01:00:12;;;;;;;34.17;13.10;;;19.60;99.90;;;;;;5091665;28;20059;-69
2021/07/17 01:02:44;;;;;;;40.33;12.38;;;19.50;99.90;;;;;;5091134;28;20104;-68
2021/07/17 01:05:10;;;;;;;41.28;12.65;;;19.50;99.90;;;;;;5090988;28;20036;-69
2021/07/17 01:07:36;;;;;;;36.92;12.70;;;19.50;99.90;;;;;;5090890;28;20374;-69
2021/07/17 01:10:05;;;;;;;43.70;12.50;;;19.60;99.90;;;;;;5090627;28;20462;-69
2021/07/17 01:12:31;;;;;;;37.95;13.00;;;19.60;99.90;;;;;;5090707;28;20020;-70
2021/07/17 01:14:57;;;;;;;41.28;12.10;;;19.50;99.90;;;;;;5091330;28;20066;-68
2021/07/17 01:17:23;;;;;;;41.53;12.73;;;19.50;99.90;;;;;;5090671;28;20044;-70
2021/07/17 01:19:49;;;;;;;43.33;13.02;;;19.40;99.90;;;;;;5090862;28;20349;-70
2021/07/17 01:22:14;;;;;;;48.33;12.38;;;19.50;99.90;;;;;;5090838;28;20038;-70
2021/07/17 01:24:43;;;;;;;35.10;11.07;;;19.50;99.90;;;;;;5090600;28;20054;-68
2021/07/17 01:27:11;;;;;;;41.60;12.43;;;19.50;99.90;;;;;;5091466;28;20449;-69
2021/07/17 01:29:38;;;;;;;42.08;13.07;;;19.40;99.90;;;;;;5090971;28;20140;-70
2021/07/17 01:32:04;;;;;;;39.17;13.53;;;19.40;99.90;;;;;;5090611;28;20442;-70
2021/07/17 01:34:30;;;;;;;43.40;12.98;;;19.20;99.90;;;;;;5090930;28;20374;-69
2021/07/17 01:36:55;;;;;;;45.20;14.02;;;19.30;99.90;;;;;;5126566;27;20453;-70
2021/07/17 01:39:23;;;;;;;38.97;13.98;;;19.30;99.90;;;;;;5131745;27;20115;-70
2021/07/17 01:41:48;;;;;;;36.75;12.73;;;19.30;99.90;;;;;;5131433;27;20152;-70
2021/07/17 01:44:14;;;;;;;39.33;14.00;;;19.30;99.90;;;;;;5131281;28;20053;-69
2021/07/17 01:46:42;;;;;;;51.97;14.35;;;19.30;99.90;;;;;;5131408;28;20096;-70
2021/07/17 01:49:07;;;;;;;42.33;12.95;;;19.20;99.90;;;;;;5131452;27;20547;-70
2021/07/17 01:51:33;;;;;;;36.88;13.65;;;19.20;99.90;;;;;;5135607;27;20110;-70
2021/07/17 01:54:00;;;;;;;42.10;13.30;;;19.30;99.90;;;;;;5136179;27;20106;-70
2021/07/17 01:56:27;;;;;;;42.35;14.40;;;19.40;99.90;;;;;;5117205;27;20082;-70
2021/07/17 01:58:54;;;;;;;39.38;12.98;;;19.40;99.90;;;;;;5135718;27;20031;-71
2021/07/17 02:01:20;;;;;;;39.08;14.88;;;19.40;99.90;;;;;;5135751;27;20110;-70
2021/07/17 02:03:48;;;;;;;34.60;13.50;;;19.40;99.90;;;;;;5135232;27;20038;-69
2021/07/17 02:06:22;;;;;;;57.13;15.10;;;19.30;99.90;;;;;;5135814;27;20043;-70
2021/07/17 02:08:47;;;;;;;39.83;14.68;;;19.30;99.90;;;;;;5135565;27;20031;-70
2021/07/17 02:11:13;;;;;;;37.17;13.68;;;19.30;99.90;;;;;;5135418;27;20117;-70
2021/07/17 02:13:38;;;;;;;40.60;13.68;;;19.30;99.90;;;;;;5135138;27;20450;-71
2021/07/17 02:16:04;;;;;;;32.88;14.27;;;19.30;99.90;;;;;;5135222;27;20031;-71
2021/07/17 02:18:33;;;;;;;44.33;14.93;;;19.30;99.90;;;;;;5135041;27;20156;-71
2021/07/17 02:21:00;;;;;;;39.35;14.52;;;19.20;99.90;;;;;;5135470;27;20682;-70
2021/07/17 02:23:27;;;;;;;49.28;16.70;;;19.30;99.90;;;;;;5135299;27;20345;-70
2021/07/17 02:25:52;;;;;;;41.17;14.95;;;19.30;99.90;;;;;;5134903;27;20480;-70
2021/07/17 02:28:18;;;;;;;54.42;15.80;;;19.30;99.90;;;;;;5135152;27;20031;-69
2021/07/17 02:30:43;;;;;;;47.13;15.43;;;19.40;99.90;;;;;;5135123;27;20046;-70
2021/07/17 02:33:10;;;;;;;48.25;15.20;;;19.40;99.90;;;;;;5135321;27;20234;-70
2021/07/17 02:35:36;;;;;;;46.85;15.07;;;19.40;99.90;;;;;;5134636;27;20035;-69
2021/07/17 02:38:02;;;;;;;43.00;15.90;;;19.30;99.90;;;;;;5134588;27;20030;-70
2021/07/17 02:40:28;;;;;;;38.50;15.77;;;19.20;99.90;;;;;;5116563;27;20058;-69
2021/07/17 02:42:53;;;;;;;37.47;14.85;;;19.20;99.90;;;;;;5135024;27;20383;-70
2021/07/17 02:45:19;;;;;;;54.40;15.93;;;19.30;99.90;;;;;;5135321;27;20057;-70
2021/07/17 02:47:45;;;;;;;49.53;16.40;;;19.30;99.90;;;;;;5134731;27;20032;-70
2021/07/17 02:50:11;;;;;;;46.22;14.55;;;19.30;99.90;;;;;;5134526;27;20039;-69
2021/07/17 02:52:36;;;;;;;44.85;15.85;;;19.30;99.90;;;;;;5134879;27;20028;-70
2021/07/17 02:55:04;;;;;;;48.80;15.35;;;19.30;99.90;;;;;;5134423;27;20529;-70
2021/07/17 02:57:29;;;;;;;47.60;16.10;;;19.40;99.90;;;;;;5116432;27;20239;-69
2021/07/17 02:59:55;;;;;;;44.30;15.73;;;19.40;99.90;;;;;;5134958;27;20023;-69
2021/07/17 03:02:21;;;;;;;43.22;15.35;;;19.40;99.90;;;;;;5133478;27;20618;-71
2021/07/17 03:04:47;;;;;;;47.40;16.63;;;19.30;99.90;;;;;;5134304;27;20059;-70
2021/07/17 03:07:13;;;;;;;42.60;16.02;;;19.20;99.90;;;;;;5134323;27;20063;-71
2021/07/17 03:09:39;;;;;;;47.63;16.40;;;19.30;99.90;;;;;;5134230;27;20022;-70
2021/07/17 03:12:06;;;;;;;47.40;15.55;;;19.30;99.90;;;;;;5135513;27;20023;-70
2021/07/17 03:14:32;;;;;;;47.20;16.50;;;19.30;99.90;;;;;;5134404;27;20035;-70
2021/07/17 03:16:58;;;;;;;52.33;16.13;;;19.20;99.90;;;;;;5134201;27;20062;-70
2021/07/17 03:19:23;;;;;;;50.45;16.55;;;19.30;99.90;;;;;;5115989;27;20051;-70
2021/07/17 03:21:49;;;;;;;51.35;17.65;;;19.20;99.90;;;;;;5133904;27;20132;-69
2021/07/17 03:24:15;;;;;;;52.28;17.58;;;19.20;99.90;;;;;;5134472;27;20023;-71
2021/07/17 03:26:40;;;;;;;41.88;16.67;;;19.20;99.90;;;;;;5133925;27;20031;-70
2021/07/17 03:29:06;;;;;;;49.72;16.83;;;19.30;99.90;;;;;;5133774;27;20030;-71
2021/07/17 03:31:32;;;;;;;56.53;19.00;;;19.20;99.90;;;;;;5133811;27;20059;-68
2021/07/17 03:33:59;;;;;;;48.40;16.98;;;19.20;99.90;;;;;;5133585;27;20027;-70
2021/07/17 03:36:25;;;;;;;58.78;18.45;;;19.40;99.90;;;;;;5133743;27;20019;-70
2021/07/17 03:38:51;;;;;;;57.03;18.75;;;19.40;99.90;;;;;;5133989;27;20445;-70
2021/07/17 03:41:17;;;;;;;47.35;16.15;;;19.30;99.90;;;;;;5133504;27;20134;-70
2021/07/17 03:43:44;;;;;;;61.75;19.20;;;19.20;99.90;;;;;;5133364;27;20023;-71
2021/07/17 03:46:09;;;;;;;52.00;18.42;;;19.20;99.90;;;;;;5133594;27;20027;-71
2021/07/17 03:48:35;;;;;;;58.80;18.00;;;19.30;99.90;;;;;;5133401;27;20025;-72
2021/07/17 03:51:00;;;;;;;50.80;17.15;;;19.40;99.90;;;;;;5133916;27;20030;-70
2021/07/17 03:53:27;;;;;;;63.28;18.20;;;19.30;99.90;;;;;;5133428;27;20097;-69
2021/07/17 03:55:52;;;;;;;52.53;17.67;;;19.30;99.90;;;;;;5133442;27;20031;-71
2021/07/17 03:58:18;;;;;;;57.28;18.20;;;19.30;99.90;;;;;;5133541;27;20034;-69
2021/07/17 04:00:43;;;;;;;51.30;19.08;;;19.40;99.90;;;;;;5133169;27;20023;-70
2021/07/17 04:03:09;;;;;;;59.53;17.65;;;19.40;99.90;;;;;;5133786;27;20114;-70
2021/07/17 04:05:34;;;;;;;52.53;17.10;;;19.40;99.90;;;;;;5133210;27;20033;-70
2021/07/17 04:08:00;;;;;;;53.13;17.77;;;19.50;99.90;;;;;;5133160;27;20035;-70
2021/07/17 04:10:26;;;;;;;46.72;17.33;;;19.40;99.90;;;;;;5133057;27;20588;-68
2021/07/17 04:12:51;;;;;;;50.78;17.65;;;19.40;99.90;;;;;;5132798;27;20425;-71
2021/07/17 04:15:17;;;;;;;51.83;17.20;;;19.40;99.90;;;;;;5133364;27;20027;-71
2021/07/17 04:17:42;;;;;;;53.60;17.08;;;19.50;99.90;;;;;;5132822;27;20035;-70
2021/07/17 04:20:09;;;;;;;56.05;17.25;;;19.40;99.90;;;;;;5132991;27;20024;-71
2021/07/17 04:22:36;;;;;;;53.47;18.45;;;19.40;99.90;;;;;;5132817;27;20031;-70
2021/07/17 04:25:04;;;;;;;56.70;17.60;;;19.40;99.90;;;;;;5132650;27;20035;-70
2021/07/17 04:27:29;;;;;;;51.30;17.45;;;19.50;99.90;;;;;;5132668;27;20020;-71
2021/07/17 04:29:55;;;;;;;45.50;16.52;;;19.50;99.90;;;;;;5133365;27;20029;-70
2021/07/17 04:32:21;;;;;;;52.22;16.92;;;19.40;99.90;;;;;;5133021;27;20047;-69
2021/07/17 04:34:47;;;;;;;46.90;16.15;;;19.40;99.90;;;;;;5132531;27;20114;-71
2021/07/17 04:37:19;;;;;;;52.88;17.63;;;19.30;99.90;;;;;;5132337;27;20030;-70
2021/07/17 04:39:49;;;;;;;49.17;17.55;;;19.30;99.90;;;;;;5132385;27;20027;-72
2021/07/17 04:42:16;;;;;;;52.03;16.73;;;19.40;99.90;;;;;;5132996;27;20450;-70
2021/07/17 04:44:42;;;;;;;48.53;16.38;;;19.40;99.90;;;;;;5132467;27;20083;-71
2021/07/17 04:47:07;;;;;;;47.88;16.23;;;19.50;99.90;;;;;;5132021;27;20023;-70
2021/07/17 04:49:33;;;;;;;42.00;16.95;;;19.50;99.90;;;;;;5132091;27;20512;-72
2021/07/17 04:51:59;;;;;;;44.25;15.77;;;19.40;99.90;;;;;;5132230;27;20024;-71
2021/07/17 04:54:25;;;;;;;52.75;15.77;;;19.50;99.90;;;;;;5132222;27;20055;-71
2021/07/17 04:56:51;;;;;;;48.05;15.60;;;19.60;99.90;;;;;;5132807;27;20027;-70
2021/07/17 04:59:17;;;;;;;42.10;15.63;;;19.40;99.90;;;;;;5132397;27;20028;-70
2021/07/17 05:01:42;;;;;;;52.13;17.10;;;19.40;99.90;;;;;;5131902;27;20031;-71
2021/07/17 05:04:08;;;;;;;45.08;15.65;;;19.50;99.90;;;;;;5131982;27;20023;-70
2021/07/17 05:06:33;;;;;;;50.50;16.60;;;19.50;99.90;;;;;;5131965;27;20023;-70
2021/07/17 05:08:59;;;;;;;49.55;15.45;;;19.40;99.90;;;;;;5132803;27;20045;-71
2021/07/17 05:11:25;;;;;;;42.72;16.27;;;19.50;99.90;;;;;;5132096;27;20032;-69
2021/07/17 05:13:50;;;;;;;54.97;15.95;;;19.50;99.90;;;;;;5131838;27;20023;-70
2021/07/17 05:16:16;;;;;;;40.85;16.27;;;19.50;99.90;;;;;;5131960;27;20126;-70
2021/07/17 05:18:41;;;;;;;41.25;15.23;;;19.50;99.90;;;;;;5131717;27;20073;-70
2021/07/17 05:21:07;;;;;;;46.58;16.13;;;19.50;99.90;;;;;;5132355;27;20039;-70
2021/07/17 05:23:33;;;;;;;43.20;16.27;;;19.50;99.90;;;;;;5113405;27;20054;-70
2021/07/17 05:25:58;;;;;;;44.70;15.07;;;19.40;99.90;;;;;;5131224;27;20266;-69
2021/07/17 05:28:24;;;;;;;36.95;15.13;;;19.50;99.90;;;;;;5131818;27;20027;-69
2021/07/17 05:30:50;;;;;;;47.55;15.63;;;19.50;99.90;;;;;;5131584;27;20023;-70
2021/07/17 05:33:16;;;;;;;37.00;14.93;;;19.50;99.90;;;;;;5132148;27;20030;-69
2021/07/17 05:35:42;;;;;;;45.28;15.05;;;19.50;99.90;;;;;;5131348;27;20034;-70
2021/07/17 05:38:08;;;;;;;42.38;13.88;;;19.50;99.90;;;;;;5131634;27;20088;-68
2021/07/17 05:40:34;;;;;;;39.25;14.05;;;19.50;99.90;;;;;;5131574;27;20048;-68
2021/07/17 05:43:00;;;;;;;45.33;14.80;;;19.70;99.90;;;;;;5131526;27;20024;-69
2021/07/17 05:45:25;;;;;;;39.13;13.50;;;19.80;99.90;;;;;;5131740;27;20053;-69
2021/07/17 05:47:51;;;;;;;40.78;14.02;;;19.70;99.90;;;;;;5113681;28;20023;-70
2021/07/17 05:50:18;;;;;;;41.15;13.77;;;19.70;99.90;;;;;;5131461;28;20046;-70
2021/07/17 05:52:44;;;;;;;37.20;13.80;;;19.70;99.90;;;;;;5131482;28;20023;-70
2021/07/17 05:55:11;;;;;;;35.60;12.98;;;19.80;99.90;;;;;;5131383;28;20039;-69
2021/07/17 05:57:37;;;;;;;34.20;12.50;;;19.90;99.90;;;;;;5131342;28;20031;-70
2021/07/17 06:00:08;;;;;;;37.17;13.15;;;19.90;99.90;;;;;;5132291;28;20023;-70
2021/07/17 06:02:33;;;;;;;37.42;12.80;;;20.00;99.90;;;;;;5131176;28;20083;-70
2021/07/17 06:04:59;;;;;;;35.78;12.07;;;20.00;99.90;;;;;;5131159;28;20054;-69
2021/07/17 06:07:24;;;;;;;34.22;12.30;;;20.10;99.90;;;;;;5131104;28;20054;-70
2021/07/17 06:09:50;;;;;;;33.47;12.18;;;20.00;99.90;;;;;;5131228;28;20428;-71
2021/07/17 06:12:16;;;;;;;29.77;11.73;;;19.90;99.90;;;;;;5131657;28;20027;-71
2021/07/17 06:14:41;;;;;;;30.08;10.82;;;19.90;99.90;;;;;;5131266;28;20031;-69
2021/07/17 06:17:11;;;;;;;31.40;12.38;;;20.00;99.90;;;;;;5131237;28;20372;-68
2021/07/17 06:19:38;;;;;;;36.70;11.57;;;19.90;99.90;;;;;;5131718;28;20072;-70
2021/07/17 06:22:03;;;;;;;45.92;12.55;;;19.90;99.90;;;;;;5131052;28;20023;-69
2021/07/17 06:24:29;;;;;;;26.95;10.50;;;19.90;99.90;;;;;;5130710;28;20027;-70
2021/07/17 06:26:55;;;;;;;28.67;11.05;;;20.10;99.90;;;;;;5131537;28;20019;-70
2021/07/17 06:29:20;;;;;;;34.42;11.25;;;20.20;99.90;;;;;;5130924;28;20073;-71
2021/07/17 06:31:46;;;;;;;30.58;11.45;;;20.10;99.90;;;;;;5131160;28;20032;-72
2021/07/17 06:34:11;;;;;;;30.98;11.98;;;20.00;99.90;;;;;;5113211;28;20227;-69
2021/07/17 06:36:37;;;;;;;31.08;9.80;;;20.20;99.90;;;;;;5131526;27;20023;-69
2021/07/17 06:39:03;;;;;;;37.05;12.60;;;20.20;99.90;;;;;;5135395;27;20023;-70
2021/07/17 06:41:28;;;;;;;30.23;11.05;;;20.30;99.90;;;;;;5134837;27;20054;-69
2021/07/17 06:43:54;;;;;;;33.38;10.88;;;20.30;99.90;;;;;;5134630;27;20032;-70
2021/07/17 06:46:19;;;;;;;24.55;9.82;;;20.30;99.90;;;;;;5134692;27;20401;-69
2021/07/17 06:48:45;;;;;;;28.95;10.38;;;20.30;99.90;;;;;;5116398;27;20030;-69
2021/07/17 06:51:10;;;;;;;20.63;10.15;;;20.30;99.90;;;;;;5135145;27;20076;-71
2021/07/17 06:53:36;;;;;;;27.15;10.30;;;20.30;99.90;;;;;;5134904;27;20031;-69
2021/07/17 06:56:02;;;;;;;31.13;10.52;;;20.40;99.90;;;;;;5134521;27;20031;-69
2021/07/17 06:58:28;;;;;;;29.10;10.82;;;20.30;99.90;;;;;;5134814;27;20031;-68
2021/07/17 07:00:54;;;;;;;21.92;9.57;;;20.30;99.90;;;;;;5134322;27;20024;-70
2021/07/17 07:03:19;;;;;;;21.98;8.40;;;20.40;99.90;;;;;;5135175;27;20399;-69
2021/07/17 07:05:45;;;;;;;25.25;9.15;;;20.50;99.90;;;;;;5134555;27;20084;-70
2021/07/17 07:08:10;;;;;;;29.73;9.20;;;20.50;99.90;;;;;;5116073;27;20074;-71
2021/07/17 07:10:36;;;;;;;34.05;9.30;;;20.60;99.90;;;;;;5134705;27;20072;-70
2021/07/17 07:13:13;;;;;;;19.52;7.10;;;20.60;99.90;;;;;;5134225;27;20472;-70
2021/07/17 07:15:39;;;;;;;22.63;8.23;;;20.70;99.90;;;;;;5134172;27;20060;-71
2021/07/17 07:18:05;;;;;;;32.72;9.05;;;20.70;99.90;;;;;;5134772;27;20019;-71
2021/07/17 07:20:31;;;;;;;26.70;8.88;;;20.70;99.90;;;;;;5116045;27;20161;-70
2021/07/17 07:22:57;;;;;;;25.95;8.60;;;20.80;99.90;;;;;;5115756;27;20039;-70
2021/07/17 07:25:22;;;;;;;21.02;8.30;;;20.80;99.90;;;;;;5134223;27;20053;-70
2021/07/17 07:27:48;;;;;;;20.33;7.50;;;20.80;99.90;;;;;;5134131;27;20122;-69
2021/07/17 07:30:15;;;;;;;21.95;8.32;;;20.80;99.90;;;;;;5134725;27;20023;-73
2021/07/17 07:32:40;;;;;;;20.42;6.88;;;20.90;99.90;;;;;;5134085;27;20049;-70
2021/07/17 07:35:06;;;;;;;24.38;7.35;;;21.00;99.90;;;;;;5133774;27;20122;-70
2021/07/17 07:37:32;;;;;;;22.48;7.75;;;21.10;99.90;;;;;;5133965;27;20031;-70
2021/07/17 07:39:57;;;;;;;18.98;6.32;;;21.10;99.90;;;;;;5115743;27;20334;-69
2021/07/17 07:42:23;;;;;;;22.27;6.72;;;21.20;99.90;;;;;;5133707;27;20524;-69
2021/07/17 07:44:52;;;;;;;18.95;6.70;;;21.30;99.90;;;;;;5134399;27;20500;-70
2021/07/17 07:47:19;;;;;;;23.52;6.78;;;21.50;99.90;;;;;;5133312;27;20020;-70
2021/07/17 07:49:46;;;;;;;25.80;6.25;;;21.70;99.90;;;;;;5133919;27;20046;-70
2021/07/17 07:52:12;;;;;;;21.25;6.38;;;21.80;99.90;;;;;;5133660;27;20032;-69
2021/07/17 07:54:38;;;;;;;17.98;5.68;;;22.00;99.90;;;;;;5133288;27;20030;-70
2021/07/17 07:57:04;;;;;;;22.40;6.15;;;22.10;99.90;;;;;;5133770;27;20015;-70
2021/07/17 07:59:30;;;;;;;15.10;5.22;;;22.20;99.90;;;;;;5133583;27;20635;-70
2021/07/17 08:01:55;;;;;;;14.13;5.43;;;22.40;99.90;;;;;;5133250;27;20034;-71
2021/07/17 08:04:21;;;;;;;15.45;4.95;;;22.70;99.80;;;;;;5133375;27;20481;-71
2021/07/17 08:06:46;;;;;;;13.38;5.07;;;22.90;99.90;;;;;;5115012;27;20045;-70
2021/07/17 08:09:12;;;;;;;13.93;5.10;;;23.10;99.40;;;;;;5133736;27;20046;-71
2021/07/17 08:11:38;;;;;;;18.25;5.80;;;23.40;98.80;;;;;;5133040;27;20387;-71
2021/07/17 08:14:03;;;;;;;14.68;4.80;;;23.80;98.50;;;;;;5132919;27;20031;-70
2021/07/17 08:16:30;;;;;;;27.60;14.70;;;24.40;98.20;;;;;;5133011;27;20038;-70
2021/07/17 08:18:56;;;;;;;9.77;4.63;;;25.30;96.80;;;;;;5114785;27;20046;-70
2021/07/17 08:21:22;;;;;;;9.35;4.53;;;26.20;97.00;;;;;;5133199;27;20027;-70
2021/07/17 08:23:48;;;;;;;12.63;3.80;;;27.00;95.20;;;;;;5133427;27;20352;-72
2021/07/17 08:26:14;;;;;;;13.65;5.03;;;27.80;93.30;;;;;;5114768;27;20028;-70
2021/07/17 08:28:40;;;;;;;11.95;3.95;;;28.30;92.70;;;;;;5132844;27;20035;-72
2021/07/17 08:31:05;;;;;;;8.02;3.75;;;29.20;92.70;;;;;;5132580;27;20023;-71
2021/07/17 08:33:32;;;;;;;19.85;4.50;;;30.10;90.90;;;;;;5114717;27;20023;-71
2021/07/17 08:35:58;;;;;;;11.73;4.15;;;30.60;90.50;;;;;;5132942;27;20019;-68
2021/07/17 08:38:23;;;;;;;11.70;3.90;;;31.30;88.10;;;;;;5132289;27;20472;-71
2021/07/17 08:40:55;;;;;;;12.80;4.28;;;32.00;86.40;;;;;;5132411;27;20058;-73
2021/07/17 08:43:22;;;;;;;11.70;4.03;;;32.70;82.70;;;;;;5132379;27;20069;-72
2021/07/17 08:45:48;;;;;;;5.07;2.67;;;32.10;78.80;;;;;;5132547;27;20648;-71
2021/07/17 08:48:14;;;;;;;9.73;3.60;;;31.90;77.70;;;;;;5132542;27;20054;-71
2021/07/17 08:50:41;;;;;;;6.53;3.65;;;32.20;76.00;;;;;;5132472;27;20037;-71
2021/07/17 08:53:07;;;;;;;13.27;3.85;;;32.70;76.00;;;;;;5113964;27;20172;-71
2021/07/17 08:55:33;;;;;;;8.00;3.38;;;33.80;77.90;;;;;;5132070;27;20033;-72
2021/07/17 08:58:00;;;;;;;8.40;3.78;;;33.80;71.70;;;;;;5132136;27;20024;-71
2021/07/17 09:00:38;;;;;;;11.25;6.55;;;32.70;69.40;;;;;;5131701;27;20026;-72
2021/07/17 09:03:08;;;;;;;6.70;3.28;;;32.90;69.40;;;;;;5132598;27;20030;-70
2021/07/17 09:05:42;;;;;;;6.03;3.03;;;32.40;71.20;;;;;;5132156;27;20035;-70
2021/07/17 09:08:09;;;;;;;7.40;2.83;;;33.40;68.70;;;;;;5113963;27;20027;-71
2021/07/17 09:10:52;;;;;;;7.18;3.25;;;33.00;66.90;;;;;;5131768;27;20144;-73
2021/07/17 09:13:20;;;;;;;6.47;2.80;;;33.60;67.80;;;;;;5131902;27;20027;-72
2021/07/17 09:15:48;;;;;;;6.70;2.75;;;33.60;66.20;;;;;;5131929;27;20031;-72
2021/07/17 09:18:26;;;;;;;4.30;2.60;;;34.10;65.50;;;;;;5132249;27;20065;-72
2021/07/17 09:21:00;;;;;;;7.75;2.42;;;33.90;61.90;;;;;;5111284;28;20036;-70
2021/07/17 09:23:27;;;;;;;5.63;2.78;;;33.50;63.30;;;;;;5128602;27;20039;-72
2021/07/17 09:25:54;;;;;;;;;;;33.80;63.30;;;;;;5119288;27;20108;-71
2021/07/17 09:28:25;;;;;;;6.18;2.92;;;33.10;60.80;;;;;;5111075;28;19990;-70
2021/07/17 09:30:55;;;;;;;6.32;2.22;;;33.40;62.70;;;;;;5110961;28;20031;-69
2021/07/17 09:33:21;;;;;;;6.10;2.63;;;33.90;61.20;;;;;;5111383;28;20019;-69
2021/07/17 09:35:48;;;;;;;4.07;2.13;;;33.70;60.60;;;;;;5110684;28;20049;-71
2021/07/17 09:38:17;;;;;;;5.65;2.40;;;34.10;59.60;;;;;;5111214;28;20031;-70
2021/07/17 09:40:48;;;;;;;5.68;2.20;;;33.00;61.10;;;;;;5110641;28;20051;-71
2021/07/17 09:43:34;;;;;;;9.70;2.10;;;33.70;59.70;;;;;;5110906;28;20415;-71
2021/07/17 09:46:01;;;;;;;3.08;1.98;;;33.30;59.70;;;;;;5110952;28;20152;-72
2021/07/17 09:48:32;;;;;;;8.07;2.40;;;32.60;60.50;;;;;;5110652;28;20035;-70
2021/07/17 09:50:59;;;;;;;4.40;2.20;;;32.20;62.40;;;;;;5111384;28;20012;-73
2021/07/17 09:53:48;;;;;;;4.20;2.38;;;32.10;62.70;;;;;;5111140;28;20133;-73
2021/07/17 09:56:16;;;;;;;8.77;2.53;;;32.00;60.90;;;;;;5111055;28;20222;-71
2021/07/17 09:58:43;;;;;;;18.50;2.22;;;31.00;63.00;;;;;;5093242;28;20095;-69
2021/07/17 10:01:23;;;;;;;12.40;2.47;;;31.30;64.40;;;;;;5111648;28;20350;-74
2021/07/17 10:03:52;;;;;;;8.07;1.83;;;31.50;64.10;;;;;;5110888;28;20581;-73
2021/07/17 10:06:30;;;;;;;8.90;2.17;;;31.40;63.00;;;;;;5111228;28;20028;-78
2021/07/17 10:08:56;;;;;;;4.45;1.80;;;31.30;64.40;;;;;;5092868;28;20510;-76
2021/07/17 10:11:27;;;;;;;3.95;1.85;;;30.70;62.20;;;;;;5112851;28;20127;-74
2021/07/17 10:13:53;;;;;;;6.75;2.00;;;30.00;63.30;;;;;;5115227;28;20047;-75
2021/07/17 10:16:25;;;;;;;3.92;1.60;;;29.80;66.30;;;;;;5114675;28;20027;-76
2021/07/17 10:18:53;;;;;;;6.97;1.67;;;29.80;64.60;;;;;;5114967;28;20039;-73
2021/07/17 10:21:20;;;;;;;5.95;2.10;;;29.90;67.00;;;;;;5115248;28;20088;-74
2021/07/17 10:23:46;;;;;;;8.23;2.15;;;29.80;65.90;;;;;;5114524;28;20055;-73
2021/07/17 10:26:12;;;;;;;6.32;2.20;;;29.50;65.40;;;;;;5114731;28;20039;-75
2021/07/17 10:28:38;;;;;;;7.53;1.80;;;29.60;67.10;;;;;;5113450;28;20023;-73
2021/07/17 10:31:05;;;;;;;6.53;1.88;;;29.50;67.20;;;;;;5113543;28;20039;-71
2021/07/17 10:33:31;;;;;;;6.55;1.80;;;29.10;68.10;;;;;;5114745;28;20050;-73
2021/07/17 10:36:06;;;;;;;9.50;1.98;;;29.10;67.80;;;;;;5114557;28;20024;-74
2021/07/17 10:38:34;;;;;;;6.75;1.98;;;28.80;68.10;;;;;;5114313;28;20028;-74
2021/07/17 10:41:01;;;;;;;6.05;2.03;;;28.80;68.70;;;;;;5114001;28;20129;-73
2021/07/17 10:43:27;;;;;;;4.35;2.10;;;28.90;69.80;;;;;;5114469;28;20047;-73
2021/07/17 10:45:54;;;;;;;6.78;1.98;;;28.90;68.70;;;;;;5114531;28;20089;-75
2021/07/17 10:48:28;;;;;;;7.72;2.25;;;28.80;70.00;;;;;;5114804;28;20047;-75
2021/07/17 10:51:03;;;;;;;7.63;2.08;;;29.00;70.80;;;;;;5114590;28;20047;-72
2021/07/17 10:53:45;;;;;;;4.13;1.58;;;29.10;71.20;;;;;;5114322;28;20062;-81
2021/07/17 10:56:29;;;;;;;8.13;2.20;;;29.00;68.00;;;;;;5129430;27;20115;-72
2021/07/17 10:58:56;;;;;;;6.13;1.92;;;28.50;70.20;;;;;;5134788;27;20326;-75
2021/07/17 11:01:22;;;;;;;5.22;1.70;;;28.40;69.40;;;;;;5134194;27;20723;-71
2021/07/17 11:03:49;;;;;;;4.28;1.60;;;28.50;70.80;;;;;;5130996;27;20035;-71
2021/07/17 11:06:33;;;;;;;6.68;2.00;;;28.30;69.50;;;;;;5115116;28;20076;-72
2021/07/17 11:09:27;;;;;;;10.30;1.90;;;28.40;69.90;;;;;;5113966;28;20046;-71
2021/07/17 11:12:19;;;;;;;8.07;1.60;;;28.70;71.30;;;;;;5113859;28;20118;-72
2021/07/17 11:14:45;;;;;;;9.27;2.00;;;28.70;70.00;;;;;;5113450;27;20407;-72
2021/07/17 11:17:11;;;;;;;6.55;1.67;;;28.70;70.60;;;;;;5113487;28;20036;-71
2021/07/17 11:19:37;;;;;;;5.00;1.58;;;28.80;71.10;;;;;;5096121;28;20047;-72
2021/07/17 11:22:11;;;;;;;5.50;1.80;;;28.70;71.00;;;;;;5072207;28;20036;-72
2021/07/17 11:24:37;;;;;;;7.22;1.70;;;28.70;71.00;;;;;;5072857;28;20125;-72
2021/07/17 11:27:08;;;;;;;6.20;1.80;;;28.70;70.30;;;;;;5073342;28;20012;-73
2021/07/17 11:29:45;;;;;;;10.18;1.80;;;28.50;71.10;;;;;;5072810;28;20028;-72
2021/07/17 11:32:12;;;;;;;7.97;2.42;;;28.50;70.60;;;;;;5072530;28;20041;-72
2021/07/17 11:34:43;;;;;;;5.20;1.80;;;28.60;72.00;;;;;;5072687;28;20332;-71
2021/07/17 11:37:11;;;;;;;6.47;1.63;;;28.70;72.40;;;;;;5088223;28;20043;-72
2021/07/17 11:39:40;;;;;;;9.85;1.77;;;28.60;72.20;;;;;;5072547;28;20024;-72
2021/07/17 11:42:08;;;;;;;6.72;1.35;;;28.60;72.00;;;;;;5073065;28;20041;-71
2021/07/17 11:44:37;;;;;;;5.10;1.50;;;28.40;70.80;;;;;;5072582;28;20033;-72
2021/07/17 11:47:11;;;;;;;6.82;1.90;;;28.50;71.90;;;;;;5072516;28;20116;-73
2021/07/17 11:49:40;;;;;;;6.28;1.67;;;28.40;72.40;;;;;;5072368;28;20040;-72
2021/07/17 11:52:16;;;;;;;4.35;1.40;;;28.40;72.20;;;;;;5072572;28;20086;-71
2021/07/17 11:54:45;;;;;;;6.57;1.77;;;28.60;72.80;;;;;;5072460;28;20032;-71
2021/07/17 11:57:17;;;;;;;9.75;1.70;;;28.50;72.80;;;;;;5072873;28;20043;-72
2021/07/17 12:00:06;;;;;;;6.57;1.92;;;28.40;73.20;;;;;;5072634;28;20142;-72
2021/07/17 12:02:33;;;;;;;7.97;1.73;;;28.20;71.80;;;;;;5062968;28;20484;-72
2021/07/17 12:05:03;;;;;;;11.10;1.63;;;28.20;72.80;;;;;;5071943;28;20339;-72
2021/07/17 12:07:32;;;;;;;4.82;1.80;;;28.20;72.90;;;;;;5072118;28;20037;-72
2021/07/17 12:10:00;;;;;;;7.97;1.92;;;28.40;72.70;;;;;;5072528;28;20099;-71
2021/07/17 12:12:40;;;;;;;8.55;1.63;;;28.50;72.40;;;;;;5072047;28;20028;-71
2021/07/17 12:15:09;;;;;;;8.23;1.60;;;28.30;71.20;;;;;;5072423;28;20017;-71
2021/07/17 12:17:37;;;;;;;7.68;1.77;;;28.30;71.80;;;;;;5072110;28;20040;-71
2021/07/17 12:20:06;;;;;;;6.43;1.80;;;28.30;72.00;;;;;;5071823;28;20025;-72
2021/07/17 12:22:32;;;;;;;6.50;1.83;;;28.20;71.60;;;;;;5071917;28;20420;-72
2021/07/17 12:25:10;;;;;;;5.18;1.38;;;28.10;72.80;;;;;;5071745;28;20042;-71
2021/07/17 12:28:06;;;;;;;5.50;1.20;;;28.30;69.00;;;;;;5071713;28;20032;-73
2021/07/17 12:30:42;;;;;;;6.70;2.05;;;28.20;67.70;;;;;;5071939;28;20024;-73
2021/07/17 12:33:18;;;;;;;4.68;1.40;;;28.30;70.60;;;;;;5088007;28;20021;-72
2021/07/17 12:35:46;;;;;;;7.18;1.77;;;28.40;70.60;;;;;;5070754;28;20059;-73
2021/07/17 12:38:28;;;;;;;6.95;1.75;;;28.40;70.30;;;;;;5071594;28;20036;-72